createdAt,value
2022-08-05T00:01:20.176Z,98260.83
2022-08-05T00:02:27.209Z,98261.16
2022-08-05T00:03:38.406Z,98261.59
2022-08-05T00:04:47.034Z,98258.81
2022-08-05T00:06:21.169Z,98253.99
2022-08-05T00:08:01.061Z,98261.52
2022-08-05T00:09:12.952Z,98260.30
2022-08-05T00:10:27.196Z,98257.60
2022-08-05T00:11:48.343Z,98256.67
2022-08-05T00:12:58.868Z,98259.48
2022-08-05T00:14:11.965Z,98263.45
2022-08-05T00:15:55.978Z,98264.04
2022-08-05T00:16:55.484Z,98262.13
2022-08-05T00:18:03.944Z,98265.33
2022-08-05T00:19:11.538Z,98265.77
2022-08-05T00:20:20.364Z,98263.03
2022-08-05T00:21:27.842Z,98264.16
2022-08-05T00:22:37.720Z,98269.17
2022-08-05T00:24:09.881Z,98268.17
2022-08-05T00:25:20.593Z,98268.96
2022-08-05T00:26:28.915Z,98270.21
2022-08-05T00:27:37.677Z,98269.86
2022-08-05T00:28:51.678Z,98264.98
2022-08-05T00:30:00.496Z,98271.12
2022-08-05T00:31:11.003Z,98273.78
2022-08-05T00:32:18.967Z,98271.31
2022-08-05T00:34:53.257Z,98272.70
2022-08-05T00:35:06.706Z,98274.03
2022-08-05T00:37:10.922Z,98276.79
2022-08-05T00:37:53.986Z,98280.91
2022-08-05T00:39:01.906Z,98281.27
2022-08-05T00:40:09.507Z,98277.41
2022-08-05T00:41:29.925Z,98275.26
2022-08-05T00:42:59.874Z,98274.55
2022-08-05T00:44:06.511Z,98275.88
2022-08-05T00:45:14.566Z,98284.55
2022-08-05T00:46:42.548Z,98280.29
2022-08-05T00:47:56.449Z,98282.15
2022-08-05T00:49:06.527Z,98287.30
2022-08-05T00:50:15.549Z,98287.91
2022-08-05T00:51:51.540Z,98288.61
2022-08-05T00:52:53.487Z,98288.77
2022-08-05T00:54:03.414Z,98286.77
2022-08-05T00:55:13.251Z,98285.99
2022-08-05T00:56:24.198Z,98283.55
2022-08-05T00:57:55.315Z,98283.88
2022-08-05T00:59:01.162Z,98280.65
2022-08-05T01:00:14.432Z,98283.33
2022-08-05T01:01:42.826Z,98279.65
2022-08-05T01:02:53.463Z,98275.95
2022-08-05T01:04:03.233Z,98280.20
2022-08-05T01:05:22.002Z,98276.95
2022-08-05T01:06:32.586Z,98280.34
2022-08-05T01:08:30.458Z,98278.46
2022-08-05T01:09:09.417Z,98278.14
2022-08-05T01:10:20.615Z,98277.68
2022-08-05T01:11:37.288Z,98281.57
2022-08-05T01:13:05.036Z,98280.54
2022-08-05T01:14:17.107Z,98281.45
2022-08-05T01:15:48.033Z,98281.76
2022-08-05T01:17:16.177Z,98287.30
2022-08-05T01:18:25.258Z,98295.86
2022-08-05T01:20:02.241Z,98291.77
2022-08-05T01:21:26.857Z,98291.12
2022-08-05T01:23:01.447Z,98292.86
2022-08-05T01:24:43.095Z,98290.81
2022-08-05T01:25:55.954Z,98290.74
2022-08-05T01:27:19.668Z,98292.11
2022-08-05T01:28:48.295Z,98293.53
2022-08-05T01:29:55.959Z,98290.96
2022-08-05T01:33:08.386Z,98289.79
2022-08-05T01:34:21.329Z,98292.23
2022-08-05T01:35:51.757Z,98294.54
2022-08-05T01:37:18.117Z,98298.02
2022-08-05T01:38:31.923Z,98296.80
2022-08-05T01:39:46.171Z,98298.98
2022-08-05T01:40:55.627Z,98302.98
2022-08-05T01:42:05.563Z,98298.27
2022-08-05T01:43:22.277Z,98298.40
2022-08-05T01:44:35.452Z,98302.48
2022-08-05T01:45:45.608Z,98301.14
2022-08-05T01:47:05.335Z,98301.82
2022-08-05T01:48:15.761Z,98299.98
2022-08-05T01:49:25.383Z,98298.80
2022-08-05T01:50:54.878Z,98302.88
2022-08-05T01:52:17.368Z,98302.14
2022-08-05T01:53:57.252Z,98301.56
2022-08-05T01:55:01.270Z,98300.95
2022-08-05T01:58:09.881Z,98299.46
2022-08-05T01:58:11.071Z,98302.05
2022-08-05T01:59:13.762Z,98303.34
2022-08-05T02:00:30.713Z,98304.95
2022-08-05T02:01:41.345Z,98303.09
2022-08-05T02:02:55.241Z,98303.05
2022-08-05T02:04:02.286Z,98298.89
2022-08-05T02:05:11.828Z,98298.40
2022-08-05T02:06:33.614Z,98297.85
2022-08-05T02:07:56.287Z,98293.41
2022-08-05T02:09:10.776Z,98293.27
2022-08-05T02:10:28.077Z,98294.98
2022-08-05T02:12:10.653Z,98296.39
2022-08-05T02:13:48.798Z,98295.09
2022-08-05T02:15:33.579Z,98295.30
2022-08-05T02:16:53.344Z,98299.04
2022-08-05T02:18:41.936Z,98300.11
2022-08-05T02:19:51.412Z,98308.54
2022-08-05T02:21:24.538Z,98305.55
2022-08-05T02:22:37.808Z,98302.55
2022-08-05T02:23:46.238Z,98304.48
2022-08-05T02:24:54.197Z,98309.70
2022-08-05T02:26:04.259Z,98310.98
2022-08-05T02:27:12.450Z,98313.43
2022-08-05T02:28:28.912Z,98311.49
2022-08-05T02:29:58.414Z,98307.85
2022-08-05T02:31:21.784Z,98310.96
2022-08-05T02:32:29.414Z,98310.94
2022-08-05T02:33:44.181Z,98309.62
2022-08-05T02:34:54.839Z,98312.20
2022-08-05T02:36:03.899Z,98312.48
2022-08-05T02:37:11.014Z,98308.91
2022-08-05T02:38:19.457Z,98312.51
2022-08-05T02:39:27.164Z,98317.49
2022-08-05T02:40:33.830Z,98314.73
2022-08-05T02:41:57.786Z,98315.48
2022-08-05T02:43:09.006Z,98320.02
2022-08-05T02:44:17.249Z,98320.48
2022-08-05T02:45:25.716Z,98323.53
2022-08-05T02:46:53.404Z,98322.17
2022-08-05T02:48:12.342Z,98324.41
2022-08-05T02:49:22.344Z,98324.24
2022-08-05T02:50:29.844Z,98329.61
2022-08-05T02:52:03.094Z,98331.67
2022-08-05T02:53:07.450Z,98330.98
2022-08-05T02:54:36.300Z,98331.41
2022-08-05T02:55:54.046Z,98332.48
2022-08-05T02:57:05.030Z,98331.16
2022-08-05T02:58:19.708Z,98332.39
2022-08-05T02:59:29.207Z,98333.41
2022-08-05T03:00:46.148Z,98332.34
2022-08-05T03:01:55.455Z,98330.94
2022-08-05T03:03:07.543Z,98331.88
2022-08-05T03:04:19.739Z,98332.50
2022-08-05T03:06:57.253Z,98336.33
2022-08-05T03:07:01.972Z,98333.76
2022-08-05T03:08:09.635Z,98331.30
2022-08-05T03:09:17.997Z,98333.31
2022-08-05T03:10:35.854Z,98333.81
2022-08-05T03:11:57.412Z,98336.31
2022-08-05T03:13:17.951Z,98338.02
2022-08-05T03:14:26.240Z,98343.91
2022-08-05T03:15:32.973Z,98345.16
2022-08-05T03:16:40.845Z,98345.70
2022-08-05T03:17:48.578Z,98347.45
2022-08-05T03:19:12.904Z,98352.17
2022-08-05T03:20:28.271Z,98349.18
2022-08-05T03:21:41.669Z,98351.48
2022-08-05T03:22:58.063Z,98354.11
2022-08-05T03:24:05.274Z,98352.55
2022-08-05T03:25:32.659Z,98353.55
2022-08-05T03:26:41.927Z,98353.48
2022-08-05T03:27:59.125Z,98357.59
2022-08-05T03:29:12.396Z,98360.54
2022-08-05T03:30:30.291Z,98364.83
2022-08-05T03:31:57.107Z,98367.01
2022-08-05T03:33:09.188Z,98367.13
2022-08-05T03:34:17.913Z,98372.09
2022-08-05T03:35:24.969Z,98369.71
2022-08-05T03:36:35.887Z,98374.52
2022-08-05T03:37:46.740Z,98375.92
2022-08-05T03:38:54.446Z,98374.90
2022-08-05T03:40:05.060Z,98378.96
2022-08-05T03:41:13.735Z,98378.09
2022-08-05T03:42:21.916Z,98382.27
2022-08-05T03:44:08.202Z,98384.95
2022-08-05T03:45:21.450Z,98388.24
2022-08-05T03:46:32.558Z,98391.98
2022-08-05T03:47:42.677Z,98395.02
2022-08-05T03:48:49.708Z,98398.20
2022-08-05T03:49:58.646Z,98404.88
2022-08-05T03:52:37.118Z,98406.05
2022-08-05T03:55:49.852Z,98417.91
2022-08-05T03:55:50.064Z,98413.23
2022-08-05T03:56:44.369Z,98415.30
2022-08-05T03:57:53.135Z,98420.02
2022-08-05T03:59:02.007Z,98418.80
2022-08-05T04:00:15.825Z,98421.05
2022-08-05T04:01:25.069Z,98421.46
2022-08-05T04:02:38.744Z,98424.02
2022-08-05T04:04:09.795Z,98425.40
2022-08-05T04:05:19.998Z,98425.08
2022-08-05T04:06:32.546Z,98426.67
2022-08-05T04:07:58.759Z,98427.81
2022-08-05T04:09:09.189Z,98426.35
2022-08-05T04:10:17.544Z,98428.85
2022-08-05T04:11:25.211Z,98431.55
2022-08-05T04:12:55.366Z,98429.27
2022-08-05T04:14:02.587Z,98429.16
2022-08-05T04:15:10.846Z,98430.80
2022-08-05T04:16:32.149Z,98430.71
2022-08-05T04:17:56.258Z,98435.75
2022-08-05T04:19:10.620Z,98436.71
2022-08-05T04:20:23.132Z,98437.81
2022-08-05T04:22:09.577Z,98442.74
2022-08-05T04:22:58.733Z,98446.63
2022-08-05T04:24:07.074Z,98450.46
2022-08-05T04:25:16.449Z,98454.40
2022-08-05T04:26:24.303Z,98456.38
2022-08-05T04:27:43.812Z,98461.04
2022-08-05T04:29:07.351Z,98460.98
2022-08-05T04:30:16.805Z,98465.26
2022-08-05T04:31:27.613Z,98465.58
2022-08-05T04:32:49.139Z,98469.04
2022-08-05T04:34:24.478Z,98472.98
2022-08-05T04:36:15.701Z,98476.39
2022-08-05T04:36:56.108Z,98478.63
2022-08-05T04:38:06.847Z,98479.16
2022-08-05T04:39:17.356Z,98483.39
2022-08-05T04:40:25.592Z,98485.03
2022-08-05T04:41:37.754Z,98490.14
2022-08-05T04:42:48.799Z,98489.70
2022-08-05T04:43:56.552Z,98492.33
2022-08-05T04:45:04.422Z,98491.69
2022-08-05T04:46:13.418Z,98495.83
2022-08-05T04:47:38.631Z,98499.41
2022-08-05T04:48:54.717Z,98499.52
2022-08-05T04:50:11.285Z,98500.02
2022-08-05T04:51:20.810Z,98502.21
2022-08-05T04:52:33.278Z,98499.98
2022-08-05T04:53:42.418Z,98502.77
2022-08-05T04:54:51.759Z,98503.69
2022-08-05T04:56:14.403Z,98501.25
2022-08-05T04:57:28.417Z,98502.36
2022-08-05T04:58:37.343Z,98504.17
2022-08-05T04:59:43.850Z,98501.28
2022-08-05T05:00:55.442Z,98503.75
2022-08-05T05:02:06.992Z,98508.58
2022-08-05T05:03:18.850Z,98511.55
2022-08-05T05:04:28.032Z,98512.39
2022-08-05T05:05:34.614Z,98516.89
2022-08-05T05:07:02.694Z,98516.08
2022-08-05T05:08:14.403Z,98515.39
2022-08-05T05:09:38.615Z,98510.75
2022-08-05T05:10:56.336Z,98511.09
2022-08-05T05:12:06.420Z,98512.14
2022-08-05T05:13:15.341Z,98511.34
2022-08-05T05:14:27.960Z,98512.39
2022-08-05T05:15:56.405Z,98516.61
2022-08-05T05:17:09.484Z,98521.86
2022-08-05T05:18:31.065Z,98521.55
2022-08-05T05:19:47.435Z,98521.13
2022-08-05T05:20:55.186Z,98524.30
2022-08-05T05:22:03.550Z,98521.23
2022-08-05T05:23:39.219Z,98518.95
2022-08-05T05:25:16.842Z,98516.03
2022-08-05T05:26:28.426Z,98513.14
2022-08-05T05:27:44.655Z,98508.94
2022-08-05T05:28:57.064Z,98507.63
2022-08-05T05:30:05.305Z,98513.64
2022-08-05T05:31:13.463Z,98513.44
2022-08-05T05:32:21.066Z,98515.07
2022-08-05T05:33:28.881Z,98515.89
2022-08-05T05:34:57.367Z,98516.92
2022-08-05T05:36:06.848Z,98516.55
2022-08-05T05:37:15.544Z,98513.27
2022-08-05T05:38:27.407Z,98514.05
2022-08-05T05:39:37.963Z,98513.02
2022-08-05T05:40:50.079Z,98518.64
2022-08-05T05:41:59.638Z,98524.05
2022-08-05T05:43:08.497Z,98525.75
2022-08-05T05:44:36.253Z,98527.11
2022-08-05T05:45:48.437Z,98526.84
2022-08-05T05:46:56.243Z,98528.91
2022-08-05T05:48:09.032Z,98531.33
2022-08-05T05:49:23.012Z,98529.78
2022-08-05T05:50:30.770Z,98530.28
2022-08-05T05:51:49.780Z,98529.02
2022-08-05T05:53:00.426Z,98527.45
2022-08-05T05:54:07.362Z,98527.49
2022-08-05T05:55:19.173Z,98526.45
2022-08-05T05:56:33.004Z,98522.48
2022-08-05T05:57:52.601Z,98525.27
2022-08-05T05:59:03.493Z,98524.77
2022-08-05T06:00:13.687Z,98525.75
2022-08-05T06:01:23.558Z,98527.39
2022-08-05T06:02:36.663Z,98530.45
2022-08-05T06:04:00.924Z,98530.27
2022-08-05T06:05:16.954Z,98532.52
2022-08-05T06:06:24.014Z,98531.88
2022-08-05T06:07:41.842Z,98530.83
2022-08-05T06:08:52.524Z,98527.94
2022-08-05T06:10:04.345Z,98526.42
2022-08-05T06:11:13.494Z,98527.29
2022-08-05T06:12:20.816Z,98527.84
2022-08-05T06:13:28.558Z,98528.65
2022-08-05T06:14:51.816Z,98527.22
2022-08-05T06:16:29.448Z,98528.30
2022-08-05T06:17:31.300Z,98524.22
2022-08-05T06:18:39.337Z,98520.61
2022-08-05T06:19:56.831Z,98519.85
2022-08-05T06:21:16.577Z,98520.18
2022-08-05T06:22:30.230Z,98519.36
2022-08-05T06:23:44.108Z,98519.69
2022-08-05T06:24:51.649Z,98518.97
2022-08-05T06:26:12.355Z,98523.45
2022-08-05T06:28:11.408Z,98526.89
2022-08-05T06:28:57.660Z,98532.08
2022-08-05T06:30:19.964Z,98530.55
2022-08-05T06:31:32.090Z,98532.14
2022-08-05T06:32:40.377Z,98532.74
2022-08-05T06:34:07.880Z,98536.23
2022-08-05T06:36:02.819Z,98535.73
2022-08-05T06:36:57.429Z,98541.52
2022-08-05T06:38:11.202Z,98540.07
2022-08-05T06:39:20.238Z,98542.80
2022-08-05T06:40:32.460Z,98541.37
2022-08-05T06:41:41.265Z,98542.95
2022-08-05T06:42:55.417Z,98541.69
2022-08-05T06:44:02.698Z,98540.81
2022-08-05T06:45:21.298Z,98541.14
2022-08-05T06:46:42.652Z,98541.23
2022-08-05T06:48:37.016Z,98541.52
2022-08-05T06:49:21.419Z,98536.98
2022-08-05T06:50:51.638Z,98537.85
2022-08-05T06:51:59.821Z,98541.08
2022-08-05T06:53:22.367Z,98538.83
2022-08-05T06:54:36.037Z,98537.69
2022-08-05T06:55:43.533Z,98539.58
2022-08-05T06:57:56.908Z,98539.46
2022-08-05T06:58:34.765Z,98538.44
2022-08-05T06:59:48.511Z,98543.89
2022-08-05T07:01:04.496Z,98541.92
2022-08-05T07:02:10.654Z,98543.62
2022-08-05T07:03:22.100Z,98540.07
2022-08-05T07:04:50.223Z,98540.13
2022-08-05T07:05:58.439Z,98542.80
2022-08-05T07:07:08.652Z,98544.27
2022-08-05T07:08:15.336Z,98545.96
2022-08-05T07:09:21.183Z,98546.07
2022-08-05T07:10:32.773Z,98544.27
2022-08-05T07:11:40.054Z,98545.90
2022-08-05T07:13:05.560Z,98546.62
2022-08-05T07:14:32.193Z,98543.02
2022-08-05T07:16:04.790Z,98544.05
2022-08-05T07:18:00.753Z,98541.91
2022-08-05T07:18:41.282Z,98546.17
2022-08-05T07:20:32.371Z,98544.75
2022-08-05T07:21:26.140Z,98542.68
2022-08-05T07:22:33.198Z,98541.81
2022-08-05T07:23:49.985Z,98543.00
2022-08-05T07:25:22.493Z,98546.55
2022-08-05T07:26:30.934Z,98543.92
2022-08-05T07:27:57.490Z,98541.13
2022-08-05T07:29:08.682Z,98545.07
2022-08-05T07:30:30.268Z,98545.89
2022-08-05T07:31:54.621Z,98551.12
2022-08-05T07:33:04.960Z,98545.98
2022-08-05T07:34:21.288Z,98547.95
2022-08-05T07:36:02.516Z,98548.77
2022-08-05T07:36:59.492Z,98549.98
2022-08-05T07:38:07.374Z,98549.49
2022-08-05T07:39:24.640Z,98549.27
2022-08-05T07:40:49.637Z,98547.13
2022-08-05T07:42:13.563Z,98545.17
2022-08-05T07:43:25.661Z,98545.88
2022-08-05T07:44:34.697Z,98544.02
2022-08-05T07:45:58.080Z,98543.26
2022-08-05T07:47:07.997Z,98545.05
2022-08-05T07:49:00.985Z,98548.59
2022-08-05T07:49:54.654Z,98548.25
2022-08-05T07:51:03.365Z,98546.55
2022-08-05T07:52:17.399Z,98549.88
2022-08-05T07:53:37.002Z,98547.92
2022-08-05T07:54:56.760Z,98544.48
2022-08-05T07:57:00.692Z,98544.74
2022-08-05T07:57:58.908Z,98543.28
2022-08-05T07:59:03.213Z,98539.64
2022-08-05T08:00:11.523Z,98537.73
2022-08-05T08:01:22.029Z,98534.05
2022-08-05T08:03:14.834Z,98536.39
2022-08-05T08:03:58.495Z,98530.50
2022-08-05T08:05:09.439Z,98525.98
2022-08-05T08:06:19.585Z,98526.73
2022-08-05T08:07:28.799Z,98525.19
2022-08-05T08:08:38.055Z,98526.98
2022-08-05T08:09:45.503Z,98527.09
2022-08-05T08:10:56.377Z,98527.64
2022-08-05T08:12:11.191Z,98527.35
2022-08-05T08:13:29.016Z,98526.66
2022-08-05T08:14:36.488Z,98528.90
2022-08-05T08:16:35.842Z,98529.94
2022-08-05T08:17:16.013Z,98530.58
2022-08-05T08:18:23.490Z,98528.89
2022-08-05T08:20:43.888Z,98528.88
2022-08-05T08:21:03.548Z,98529.23
2022-08-05T08:22:10.831Z,98530.86
2022-08-05T08:24:02.264Z,98530.27
2022-08-05T08:24:53.385Z,98531.48
2022-08-05T08:26:04.507Z,98531.63
2022-08-05T08:27:16.588Z,98527.33
2022-08-05T08:28:36.334Z,98523.45
2022-08-05T08:30:05.699Z,98529.98
2022-08-05T08:31:17.533Z,98531.89
2022-08-05T08:32:27.911Z,98526.62
2022-08-05T08:33:37.971Z,98525.74
2022-08-05T08:34:45.587Z,98525.09
2022-08-05T08:35:55.994Z,98529.40
2022-08-05T08:37:14.671Z,98526.73
2022-08-05T08:38:36.145Z,98529.98
2022-08-05T08:39:49.637Z,98528.98
2022-08-05T08:40:58.285Z,98528.02
2022-08-05T08:42:07.632Z,98527.09
2022-08-05T08:45:18.981Z,98532.98
2022-08-05T08:45:19.918Z,98529.77
2022-08-05T08:46:19.986Z,98535.48
2022-08-05T08:48:05.785Z,98538.38
2022-08-05T08:49:07.487Z,98536.85
2022-08-05T08:50:52.605Z,98530.02
2022-08-05T08:52:13.102Z,98530.57
2022-08-05T08:53:22.610Z,98529.52
2022-08-05T08:54:31.716Z,98533.50
2022-08-05T08:56:02.493Z,98530.83
2022-08-05T08:57:11.246Z,98527.21
2022-08-05T08:58:19.705Z,98523.66
2022-08-05T08:59:47.283Z,98524.38
2022-08-05T09:00:56.225Z,98523.61
2022-08-05T09:02:08.675Z,98522.02
2022-08-05T09:03:19.270Z,98523.34
2022-08-05T09:04:30.448Z,98520.66
2022-08-05T09:06:08.628Z,98518.98
2022-08-05T09:07:19.332Z,98514.52
2022-08-05T09:08:40.373Z,98514.02
2022-08-05T09:09:47.697Z,98513.90
2022-08-05T09:10:56.810Z,98512.33
2022-08-05T09:12:20.140Z,98509.00
2022-08-05T09:14:09.625Z,98507.32
2022-08-05T09:15:06.523Z,98505.23
2022-08-05T09:16:16.787Z,98503.77
2022-08-05T09:17:42.717Z,98503.98
2022-08-05T09:18:55.404Z,98502.56
2022-08-05T09:20:05.440Z,98501.52
2022-08-05T09:21:21.133Z,98501.95
2022-08-05T09:23:09.119Z,98500.26
2022-08-05T09:24:16.664Z,98502.88
2022-08-05T09:25:59.830Z,98508.59
2022-08-05T09:26:57.148Z,98509.02
2022-08-05T09:28:32.564Z,98510.48
2022-08-05T09:29:50.366Z,98512.11
2022-08-05T09:31:22.120Z,98514.56
2022-08-05T09:32:51.104Z,98514.88
2022-08-05T09:34:13.243Z,98514.17
2022-08-05T09:35:27.342Z,98515.75
2022-08-05T09:36:55.107Z,98516.23
2022-08-05T09:38:17.763Z,98517.11
2022-08-05T09:39:39.465Z,98521.91
2022-08-05T09:40:53.991Z,98519.55
2022-08-05T09:42:01.862Z,98519.99
2022-08-05T09:43:12.016Z,98521.14
2022-08-05T09:44:42.631Z,98518.95
2022-08-05T09:46:06.152Z,98517.41
2022-08-05T09:47:16.941Z,98514.20
2022-08-05T09:48:35.131Z,98511.48
2022-08-05T09:50:00.576Z,98506.03
2022-08-05T09:51:15.016Z,98502.98
2022-08-05T09:52:35.058Z,98500.58
2022-08-05T09:53:55.371Z,98496.11
2022-08-05T09:55:56.506Z,98493.11
2022-08-05T09:56:39.180Z,98492.73
2022-08-05T09:57:48.426Z,98492.39
2022-08-05T09:59:04.303Z,98493.22
2022-08-05T10:00:25.863Z,98496.98
2022-08-05T10:01:39.710Z,98497.25
2022-08-05T10:02:58.455Z,98501.98
2022-08-05T10:04:13.101Z,98497.58
2022-08-05T10:05:23.228Z,98497.84
2022-08-05T10:06:33.540Z,98495.44
2022-08-05T10:08:34.677Z,98499.48
2022-08-05T10:09:45.270Z,98502.86
2022-08-05T10:10:55.006Z,98504.87
2022-08-05T10:12:31.129Z,98506.17
2022-08-05T10:13:47.175Z,98508.40
2022-08-05T10:14:56.341Z,98509.60
2022-08-05T10:16:03.584Z,98509.05
2022-08-05T10:17:39.812Z,98510.36
2022-08-05T10:18:48.072Z,98508.20
2022-08-05T10:20:03.134Z,98505.19
2022-08-05T10:21:16.319Z,98501.38
2022-08-05T10:22:30.084Z,98501.76
2022-08-05T10:23:56.065Z,98500.82
2022-08-05T10:25:09.064Z,98501.95
2022-08-05T10:26:16.185Z,98502.98
2022-08-05T10:27:26.226Z,98498.46
2022-08-05T10:28:53.313Z,98499.33
2022-08-05T10:31:20.727Z,98499.59
2022-08-05T10:32:52.565Z,98501.02
2022-08-05T10:33:04.894Z,98498.61
2022-08-05T10:34:17.541Z,98496.96
2022-08-05T10:35:33.902Z,98497.05
2022-08-05T10:36:48.883Z,98497.80
2022-08-05T10:37:56.218Z,98497.60
2022-08-05T10:39:59.346Z,98498.09
2022-08-05T10:41:02.128Z,98497.05
2022-08-05T10:42:22.757Z,98496.50
2022-08-05T10:43:59.384Z,98496.16
2022-08-05T10:45:20.825Z,98498.90
2022-08-05T10:46:54.461Z,98494.42
2022-08-05T10:48:57.318Z,98497.84
2022-08-05T10:50:31.493Z,98501.98
2022-08-05T10:51:59.926Z,98503.29
2022-08-05T10:53:10.791Z,98507.81
2022-08-05T10:54:28.152Z,98508.20
2022-08-05T10:56:03.437Z,98507.86
2022-08-05T10:57:06.075Z,98508.73
2022-08-05T10:58:15.678Z,98508.23
2022-08-05T11:00:02.728Z,98505.69
2022-08-05T11:01:02.736Z,98507.56
2022-08-05T11:02:38.326Z,98503.96
2022-08-05T11:04:21.325Z,98506.54
2022-08-05T11:05:31.602Z,98505.61
2022-08-05T11:07:01.911Z,98504.86
2022-08-05T11:08:36.874Z,98507.83
2022-08-05T11:09:47.032Z,98511.25
2022-08-05T11:11:00.889Z,98514.31
2022-08-05T11:12:45.377Z,98509.95
2022-08-05T11:13:59.541Z,98513.00
2022-08-05T11:15:19.089Z,98509.63
2022-08-05T11:16:33.742Z,98507.86
2022-08-05T11:18:00.052Z,98508.68
2022-08-05T11:20:11.436Z,98505.95
2022-08-05T11:20:58.241Z,98504.40
2022-08-05T11:22:42.173Z,98503.96
2022-08-05T11:24:05.750Z,98503.69
2022-08-05T11:26:05.895Z,98501.39
2022-08-05T11:27:50.132Z,98499.88
2022-08-05T11:29:06.722Z,98499.65
2022-08-05T11:30:20.787Z,98502.48
2022-08-05T11:31:57.341Z,98502.64
2022-08-05T11:33:44.198Z,98506.88
2022-08-05T11:34:58.188Z,98509.29
2022-08-05T11:36:10.535Z,98507.77
2022-08-05T11:38:29.464Z,98507.23
2022-08-05T11:39:07.555Z,98505.02
2022-08-05T11:40:18.364Z,98508.06
2022-08-05T11:41:56.287Z,98507.00
2022-08-05T11:42:58.192Z,98509.60
2022-08-05T11:44:40.298Z,98507.00
2022-08-05T11:46:27.075Z,98509.67
2022-08-05T11:47:22.058Z,98513.55
2022-08-05T11:48:51.517Z,98513.89
2022-08-05T11:50:05.352Z,98514.66
2022-08-05T11:51:12.985Z,98509.42
2022-08-05T11:52:40.337Z,98512.71
2022-08-05T11:53:53.826Z,98513.15
2022-08-05T11:55:07.375Z,98513.24
2022-08-05T11:56:17.653Z,98511.83
2022-08-05T11:57:27.088Z,98512.05
2022-08-05T11:58:40.448Z,98514.17
2022-08-05T11:59:50.390Z,98513.95
2022-08-05T12:01:08.510Z,98514.81
2022-08-05T12:02:23.868Z,98515.63
2022-08-05T12:03:55.750Z,98512.48
2022-08-05T12:05:07.558Z,98511.38
2022-08-05T12:06:29.962Z,98514.49
2022-08-05T12:08:08.694Z,98513.73
2022-08-05T12:09:04.582Z,98509.64
2022-08-05T12:10:12.225Z,98514.16
2022-08-05T12:11:28.335Z,98513.52
2022-08-05T12:12:59.860Z,98517.42
2022-08-05T12:14:10.196Z,98522.44
2022-08-05T12:15:33.952Z,98518.84
2022-08-05T12:16:48.077Z,98520.78
2022-08-05T12:18:03.162Z,98521.37
2022-08-05T12:20:26.217Z,98522.06
2022-08-05T12:20:42.077Z,98524.02
2022-08-05T12:21:51.679Z,98524.58
2022-08-05T12:23:11.108Z,98522.47
2022-08-05T12:24:24.660Z,98522.86
2022-08-05T12:25:32.013Z,98527.61
2022-08-05T12:26:51.900Z,98527.73
2022-08-05T12:27:58.868Z,98525.33
2022-08-05T12:29:15.908Z,98529.20
2022-08-05T12:30:29.132Z,98526.86
2022-08-05T12:31:49.714Z,98524.89
2022-08-05T12:33:07.180Z,98527.55
2022-08-05T12:34:31.607Z,98525.73
2022-08-05T12:35:39.901Z,98525.40
2022-08-05T12:36:51.528Z,98527.16
2022-08-05T12:37:58.974Z,98525.15
2022-08-05T12:39:09.060Z,98525.71
2022-08-05T12:40:26.447Z,98528.02
2022-08-05T12:41:34.789Z,98529.15
2022-08-05T12:42:43.380Z,98529.86
2022-08-05T12:43:58.966Z,98533.13
2022-08-05T12:45:08.890Z,98536.18
2022-08-05T12:46:28.892Z,98541.52
2022-08-05T12:47:36.481Z,98539.21
2022-08-05T12:48:44.712Z,98542.66
2022-08-05T12:50:03.420Z,98546.02
2022-08-05T12:52:11.050Z,98546.50
2022-08-05T12:52:58.301Z,98549.20
2022-08-05T12:54:16.866Z,98549.02
2022-08-05T12:55:35.414Z,98549.73
2022-08-05T12:56:54.264Z,98551.32
2022-08-05T12:58:49.881Z,98552.84
2022-08-05T13:00:08.452Z,98553.86
2022-08-05T13:01:59.949Z,98554.83
2022-08-05T13:02:30.738Z,98552.20
2022-08-05T13:03:42.911Z,98553.18
2022-08-05T13:04:55.814Z,98559.52
2022-08-05T13:06:03.999Z,98559.04
2022-08-05T13:07:16.094Z,98559.93
2022-08-05T13:08:27.048Z,98561.08
2022-08-05T13:09:36.452Z,98563.91
2022-08-05T13:10:50.677Z,98565.50
2022-08-05T13:12:07.792Z,98566.58
2022-08-05T13:14:04.840Z,98570.45
2022-08-05T13:15:05.479Z,98571.08
2022-08-05T13:16:15.495Z,98572.38
2022-08-05T13:17:25.049Z,98574.21
2022-08-05T13:18:40.205Z,98571.25
2022-08-05T13:20:09.488Z,98571.34
2022-08-05T13:21:20.568Z,98569.93
2022-08-05T13:22:28.121Z,98569.30
2022-08-05T13:23:36.838Z,98569.86
2022-08-05T13:25:00.416Z,98570.14
2022-08-05T13:26:08.922Z,98568.63
2022-08-05T13:27:37.786Z,98572.39
2022-08-05T13:28:47.805Z,98572.27
2022-08-05T13:30:34.510Z,98570.73
2022-08-05T13:32:04.569Z,98575.91
2022-08-05T13:33:00.842Z,98576.50
2022-08-05T13:34:25.161Z,98573.78
2022-08-05T13:35:43.101Z,98576.50
2022-08-05T13:36:58.933Z,98576.35
2022-08-05T13:38:07.388Z,98578.59
2022-08-05T13:40:13.081Z,98580.02
2022-08-05T13:40:51.443Z,98583.31
2022-08-05T13:42:00.371Z,98584.73
2022-08-05T13:43:12.072Z,98585.63
2022-08-05T13:44:21.156Z,98587.71
2022-08-05T13:45:31.020Z,98588.86
2022-08-05T13:47:08.756Z,98592.15
2022-08-05T13:48:57.550Z,98594.27
2022-08-05T13:49:46.487Z,98598.05
2022-08-05T13:50:53.860Z,98600.73
2022-08-05T13:52:29.347Z,98602.87
2022-08-05T13:53:47.688Z,98605.65
2022-08-05T13:54:57.838Z,98607.58
2022-08-05T13:56:18.481Z,98607.00
2022-08-05T13:57:27.558Z,98609.27
2022-08-05T13:58:55.756Z,98613.16
2022-08-05T14:00:04.431Z,98611.54
2022-08-05T14:01:19.069Z,98613.30
2022-08-05T14:02:26.619Z,98614.66
2022-08-05T14:03:39.380Z,98616.25
2022-08-05T14:05:11.606Z,98615.77
2022-08-05T14:06:26.137Z,98614.58
2022-08-05T14:08:00.249Z,98617.42
2022-08-05T14:09:03.489Z,98616.52
2022-08-05T14:10:28.574Z,98616.30
2022-08-05T14:12:04.310Z,98614.14
2022-08-05T14:13:11.145Z,98617.93
2022-08-05T14:14:26.126Z,98624.89
2022-08-05T14:16:08.068Z,98621.23
2022-08-05T14:17:27.036Z,98624.11
2022-08-05T14:18:38.052Z,98625.14
2022-08-05T14:19:56.001Z,98627.29
2022-08-05T14:22:06.703Z,98628.79
2022-08-05T14:22:37.513Z,98631.34
2022-08-05T14:24:00.504Z,98636.33
2022-08-05T14:25:19.230Z,98632.95
2022-08-05T14:26:36.752Z,98634.13
2022-08-05T14:27:49.158Z,98633.00
2022-08-05T14:28:57.734Z,98635.70
2022-08-05T14:30:20.435Z,98638.94
2022-08-05T14:32:02.883Z,98640.70
2022-08-05T14:33:00.724Z,98643.28
2022-08-05T14:34:07.608Z,98643.90
2022-08-05T14:35:23.520Z,98646.38
2022-08-05T14:36:48.781Z,98648.73
2022-08-05T14:37:56.300Z,98651.20
2022-08-05T14:39:11.014Z,98650.49
2022-08-05T14:40:19.263Z,98651.60
2022-08-05T14:41:26.263Z,98655.29
2022-08-05T14:42:37.959Z,98658.07
2022-08-05T14:44:01.538Z,98655.43
2022-08-05T14:45:13.475Z,98658.43
2022-08-05T14:46:22.304Z,98660.66
2022-08-05T14:48:03.475Z,98662.99
2022-08-05T14:49:06.234Z,98657.94
2022-08-05T14:50:19.096Z,98660.77
2022-08-05T14:51:30.814Z,98655.97
2022-08-05T14:52:52.434Z,98657.20
2022-08-05T14:54:27.664Z,98658.53
2022-08-05T14:55:39.581Z,98656.86
2022-08-05T14:56:47.983Z,98661.64
2022-08-05T14:57:56.180Z,98656.34
2022-08-05T14:59:04.130Z,98657.16
2022-08-05T15:00:14.904Z,98658.54
2022-08-05T15:01:48.055Z,98659.23
2022-08-05T15:02:54.313Z,98663.30
2022-08-05T15:04:02.722Z,98663.14
2022-08-05T15:05:13.537Z,98658.13
2022-08-05T15:06:21.037Z,98658.80
2022-08-05T15:08:10.704Z,98660.24
2022-08-05T15:09:12.067Z,98661.43